Time;durP1;ratioP1;P1;durP2;ratioP2;P2;SDS_P1;SDS_P2;PMS_P1;PMS_P2;Temp;Humidity;BMP_temperature;BMP_pressure;BME280_temperature;BME280_humidity;BME280_pressure;Samples;Min_cycle;Max_cycle;Signal;HPM_P1;HPM_P2
2021/12/18 00:01:05;;;;;;;14.82;3.13;;;;;;;6.49;100.00;104083.91;4713690;30;20064;-79
2021/12/18 00:03:34;;;;;;;11.45;2.75;;;;;;;6.49;100.00;104090.06;4713882;30;20063;-78
2021/12/18 00:06:04;;;;;;;5.30;2.58;;;;;;;6.49;100.00;104082.19;4716829;30;20052;-79
2021/12/18 00:08:32;;;;;;;7.50;2.30;;;;;;;6.47;100.00;104083.78;4722464;30;20487;-80
2021/12/18 00:11:01;;;;;;;6.22;2.55;;;;;;;6.46;100.00;104079.34;4678955;30;20053;-78
2021/12/18 00:13:30;;;;;;;6.35;2.25;;;;;;;6.48;100.00;104088.22;4655322;30;20045;-78
2021/12/18 00:15:59;;;;;;;4.75;2.08;;;;;;;6.49;100.00;104087.44;4703962;30;20076;-80
2021/12/18 00:18:28;;;;;;;6.20;2.60;;;;;;;6.50;100.00;104089.22;4731719;30;20060;-78
2021/12/18 00:21:01;;;;;;;25.63;3.17;;;;;;;6.50;100.00;104086.63;4723477;30;20408;-80
2021/12/18 00:23:29;;;;;;;5.38;1.95;;;;;;;6.49;100.00;104073.44;4708857;30;20384;-80
2021/12/18 00:25:58;;;;;;;9.73;2.33;;;;;;;6.47;100.00;104068.06;4721045;30;20057;-78
2021/12/18 00:28:26;;;;;;;7.10;1.92;;;;;;;6.44;100.00;104062.59;4730070;30;20071;-78
2021/12/18 00:30:55;;;;;;;4.57;2.00;;;;;;;6.41;100.00;104065.03;4698077;30;20052;-78
2021/12/18 00:33:24;;;;;;;4.65;1.73;;;;;;;6.35;100.00;104052.41;4700933;30;20056;-79
2021/12/18 00:35:52;;;;;;;7.55;2.50;;;;;;;6.35;100.00;104056.69;4728130;30;20052;-78
2021/12/18 00:38:28;;;;;;;6.07;2.00;;;;;;;6.34;100.00;104066.28;4728789;30;20381;-77
2021/12/18 00:44:00;;;;;;;4.85;2.25;;;;;;;6.36;100.00;104084.72;4712710;30;20055;-78
2021/12/18 00:46:27;;;;;;;5.57;2.15;;;;;;;6.35;100.00;104075.03;4730977;30;20076;-78
2021/12/18 00:48:56;;;;;;;3.47;1.75;;;;;;;6.33;100.00;104084.50;4729390;30;20056;-78
2021/12/18 00:51:24;;;;;;;3.08;1.48;;;;;;;6.32;100.00;104090.56;4717051;30;20424;-78
2021/12/18 00:53:53;;;;;;;3.83;1.50;;;;;;;6.30;100.00;104079.06;4728223;30;20053;-79
2021/12/18 00:56:23;;;;;;;3.10;1.45;;;;;;;6.28;100.00;104075.41;4723381;30;20052;-80
2021/12/18 00:58:52;;;;;;;5.75;1.70;;;;;;;6.25;100.00;104076.09;4699906;30;20061;-78
2021/12/18 01:01:23;;;;;;;3.00;1.60;;;;;;;6.24;100.00;104077.81;4690220;30;20501;-78
2021/12/18 01:03:52;;;;;;;5.97;1.67;;;;;;;6.25;100.00;104073.47;4709713;30;20056;-78
2021/12/18 01:06:23;;;;;;;3.10;1.33;;;;;;;6.26;100.00;104077.91;4713648;30;20060;-78
2021/12/18 01:08:55;;;;;;;3.28;1.83;;;;;;;6.25;100.00;104076.09;4727308;30;20063;-79
2021/12/18 01:11:33;;;;;;;3.90;1.83;;;;;;;6.25;100.00;104077.00;4708076;30;20061;-78
2021/12/18 01:22:42;;;;;;;5.25;1.92;;;;;;;6.27;100.00;104074.47;4710027;30;20072;-78
2021/12/18 01:25:03;;;;;;;10.70;3.10;;;;;;;6.27;100.00;104079.72;4718494;30;20053;-78
2021/12/18 01:27:32;;;;;;;6.95;3.10;;;;;;;6.27;100.00;104078.81;4723955;30;20148;-78
2021/12/18 01:30:03;;;;;;;6.43;3.08;;;;;;;6.28;100.00;104083.28;4705274;30;20289;-78
2021/12/18 01:32:31;;;;;;;;;;;;;;;6.28;100.00;104080.66;4697110;30;20404;-79
2021/12/18 01:35:01;;;;;;;7.60;3.05;;;;;;;6.29;100.00;104082.47;4702577;30;20169;-79
2021/12/18 01:37:29;;;;;;;4.57;2.58;;;;;;;6.30;100.00;104084.28;4732040;30;20401;-78
2021/12/18 01:40:00;;;;;;;6.13;3.28;;;;;;;6.31;100.00;104093.97;4714792;30;20048;-79
2021/12/18 01:53:16;;;;;;;7.47;3.38;;;;;;;6.31;100.00;104081.75;4720294;30;20053;-79
2021/12/18 01:55:46;;;;;;;18.35;3.85;;;;;;;6.31;100.00;104075.63;4736475;30;20048;-78
2021/12/18 01:58:22;;;;;;;9.98;3.60;;;;;;;6.32;100.00;104075.75;4690483;30;20052;-80
2021/12/18 02:00:53;;;;;;;11.20;3.25;;;;;;;6.34;100.00;104081.09;4704792;30;20049;-78
2021/12/18 02:03:22;;;;;;;10.40;3.10;;;;;;;6.35;100.00;104078.59;4713997;30;20489;-79
2021/12/18 02:05:51;;;;;;;10.43;3.30;;;;;;;6.36;100.00;104074.25;4727428;30;20056;-78
2021/12/18 02:08:23;;;;;;;7.22;3.50;;;;;;;6.36;100.00;104069.91;4703790;30;20065;-79
2021/12/18 02:11:32;;;;;;;35.22;4.53;;;;;;;6.37;100.00;104065.56;4723050;30;20061;-79
2021/12/18 02:21:52;;;;;;;10.38;3.22;;;;;;;6.40;100.00;104068.44;4713329;30;20499;-78
2021/12/18 02:24:25;;;;;;;20.50;4.00;;;;;;;6.42;100.00;104069.44;4729039;30;20060;-78
2021/12/18 02:26:53;;;;;;;8.75;3.13;;;;;;;6.43;100.00;104073.91;4711683;30;20075;-79
2021/12/18 02:29:22;;;;;;;13.75;3.42;;;;;;;6.45;100.00;104077.53;4711833;30;20049;-79
2021/12/18 02:31:50;;;;;;;14.90;3.30;;;;;;;6.47;100.00;104080.28;4710735;30;20061;-78
2021/12/18 02:34:26;;;;;;;20.70;4.20;;;;;;;6.47;100.00;104070.69;4707618;30;20391;-78
2021/12/18 02:37:01;;;;;;;6.82;2.92;;;;;;;6.49;100.00;104065.56;4698748;30;20257;-78
2021/12/18 02:39:55;;;;;;;22.42;3.70;;;;;;;6.49;100.00;104061.22;4723998;30;20060;-78
2021/12/18 02:42:23;;;;;;;9.98;3.08;;;;;;;6.49;100.00;104062.94;4728031;30;20073;-78
2021/12/18 02:44:52;;;;;;;11.13;4.00;;;;;;;6.49;100.00;104074.34;4725855;30;20044;-78
2021/12/18 02:47:21;;;;;;;11.50;3.45;;;;;;;6.50;100.00;104076.13;4743859;30;20061;-78
2021/12/18 02:49:51;;;;;;;18.35;3.58;;;;;;;6.50;100.00;104073.50;4695625;30;20507;-79
2021/12/18 02:52:27;;;;;;;10.00;2.90;;;;;;;6.49;100.00;104069.09;4728240;30;20059;-79
2021/12/18 02:54:56;;;;;;;11.98;3.30;;;;;;;6.50;100.00;104073.50;4712215;30;20053;-78
2021/12/18 02:57:25;;;;;;;15.82;3.78;;;;;;;6.50;100.00;104073.50;4717342;30;20059;-79
2021/12/18 02:59:56;;;;;;;15.75;3.33;;;;;;;6.49;100.00;104069.09;4708060;30;20056;-78
2021/12/18 03:02:26;;;;;;;13.15;3.50;;;;;;;6.48;100.00;104063.72;4733282;30;20064;-79
2021/12/18 03:04:59;;;;;;;10.50;3.20;;;;;;;6.48;100.00;104063.72;4695843;30;20340;-79
2021/12/18 03:07:29;;;;;;;5.88;2.30;;;;;;;6.47;100.00;104062.84;4717594;30;20060;-78
2021/12/18 03:22:09;;;;;;;19.08;2.47;;;;;;;6.44;100.00;104050.41;4703586;30;20559;-77
2021/12/18 03:24:32;;;;;;;6.63;1.95;;;;;;;6.42;100.00;104046.78;4712583;30;20053;-79
2021/12/18 03:27:00;;;;;;;24.40;2.47;;;;;;;6.41;100.00;104054.53;4730231;30;20057;-78
2021/12/18 03:29:29;;;;;;;19.20;2.20;;;;;;;6.40;100.00;104048.38;4732848;30;20401;-79
2021/12/18 03:31:58;;;;;;;16.15;1.65;;;;;;;6.39;100.00;104043.03;4707469;30;20096;-78
2021/12/18 03:34:26;;;;;;;4.95;2.05;;;;;;;6.40;100.00;104042.22;4701005;30;20377;-79
2021/12/18 03:36:54;;;;;;;38.55;2.72;;;;;;;6.39;100.00;104030.84;4692806;30;20061;-78
2021/12/18 03:39:23;;;;;;;44.58;2.80;;;;;;;6.38;100.00;104043.84;4706458;30;20064;-79
2021/12/18 03:41:51;;;;;;;33.63;3.28;;;;;;;6.38;100.00;104038.59;4726931;30;20056;-77
2021/12/18 03:44:21;;;;;;;28.55;2.85;;;;;;;6.36;100.00;104041.09;4728287;30;20064;-79
2021/12/18 03:46:50;;;;;;;15.18;2.15;;;;;;;6.35;100.00;104036.69;4726121;30;20060;-78
2021/12/18 03:49:18;;;;;;;22.15;2.25;;;;;;;6.37;100.00;104036.75;4717970;30;20060;-79
2021/12/18 03:51:47;;;;;;;14.60;2.53;;;;;;;6.38;100.00;104025.50;4691394;30;20075;-79
2021/12/18 03:54:16;;;;;;;12.13;2.22;;;;;;;6.39;100.00;104032.53;4691846;30;20083;-79
2021/12/18 03:56:44;;;;;;;28.67;3.03;;;;;;;6.39;100.00;104035.16;4730219;30;20052;-78
2021/12/18 03:59:13;;;;;;;12.00;2.00;;;;;;;6.38;100.00;104034.25;4716718;30;20061;-77
2021/12/18 04:01:42;;;;;;;16.90;2.35;;;;;;;6.39;100.00;104029.91;4721063;30;20376;-78
2021/12/18 04:04:10;;;;;;;72.80;4.15;;;;;;;6.40;100.00;104029.13;4735970;30;21027;-78
2021/12/18 04:06:39;;;;;;;57.40;3.80;;;;;;;6.39;100.00;104038.72;4711785;30;20048;-78
2021/12/18 04:09:11;;;;;;;26.45;2.83;;;;;;;6.41;100.00;104037.09;4715558;30;20297;-78
2021/12/18 04:11:43;;;;;;;21.58;2.58;;;;;;;6.42;100.00;104045.88;4744862;30;20057;-79
2021/12/18 04:14:12;;;;;;;24.38;3.25;;;;;;;6.42;100.00;104031.06;4711739;30;20067;-79
2021/12/18 04:16:41;;;;;;;32.92;3.55;;;;;;;6.44;100.00;104025.94;4723702;30;20065;-78
2021/12/18 04:19:10;;;;;;;42.30;3.95;;;;;;;6.46;100.00;104024.31;4728176;30;20716;-78
2021/12/18 04:21:38;;;;;;;18.83;3.25;;;;;;;6.48;100.00;104041.06;4725500;30;20053;-78
2021/12/18 04:24:07;;;;;;;11.40;3.25;;;;;;;6.49;100.00;104024.56;4698259;30;20055;-78
2021/12/18 04:26:36;;;;;;;8.25;2.97;;;;;;;6.50;100.00;104021.13;4726803;30;20053;-79
2021/12/18 04:29:06;;;;;;;9.70;3.30;;;;;;;6.52;100.00;104018.59;4726005;30;20586;-78
2021/12/18 04:31:37;;;;;;;15.75;4.13;;;;;;;6.54;100.00;104023.19;4725326;30;20057;-79
2021/12/18 04:34:06;;;;;;;5.68;2.92;;;;;;;6.54;100.00;104017.94;4726537;30;20455;-78
2021/12/18 04:36:35;;;;;;;9.32;3.53;;;;;;;6.58;100.00;104024.31;4726881;30;20531;-80
2021/12/18 04:39:04;;;;;;;5.95;2.92;;;;;;;6.59;100.00;104013.00;4695571;30;20427;-79
2021/12/18 04:41:42;;;;;;;9.77;3.10;;;;;;;6.59;100.00;104018.25;4714071;30;20052;-79
2021/12/18 04:44:11;;;;;;;11.00;3.00;;;;;;;6.59;100.00;104020.88;4728491;30;20194;-79
2021/12/18 04:46:40;;;;;;;8.23;3.03;;;;;;;6.60;100.00;104022.69;4688867;30;20053;-78
2021/12/18 04:49:09;;;;;;;6.05;2.33;;;;;;;6.61;100.00;104030.63;4721659;30;20060;-78
2021/12/18 04:51:37;;;;;;;6.93;2.33;;;;;;;6.62;100.00;104022.00;4717137;30;20045;-78
2021/12/18 04:54:06;;;;;;;4.38;1.73;;;;;;;6.63;100.00;104018.59;4706249;30;20579;-78
2021/12/18 04:56:34;;;;;;;3.50;1.83;;;;;;;6.65;100.00;104026.53;4728035;30;20083;-78
2021/12/18 04:59:04;;;;;;;6.30;2.45;;;;;;;6.67;100.00;104018.78;4724610;30;20059;-78
2021/12/18 05:01:37;;;;;;;4.72;2.10;;;;;;;6.66;100.00;104016.97;4745259;30;20063;-78
2021/12/18 05:04:10;;;;;;;5.75;2.83;;;;;;;6.66;100.00;104024.84;4714044;30;20052;-78
2021/12/18 05:06:43;;;;;;;4.22;2.20;;;;;;;6.66;100.00;104024.84;4717912;30;20061;-79
2021/12/18 05:09:16;;;;;;;6.35;2.42;;;;;;;6.67;100.00;104013.53;4697124;30;20075;-79
2021/12/18 05:11:45;;;;;;;5.68;2.88;;;;;;;6.66;100.00;104015.25;4726153;30;20056;-78
2021/12/18 05:14:13;;;;;;;14.32;4.00;;;;;;;6.68;100.00;104023.22;4728084;30;20057;-77
2021/12/18 05:16:42;;;;;;;9.40;3.13;;;;;;;6.68;100.00;104015.38;4706209;30;20056;-78
2021/12/18 05:19:11;;;;;;;6.00;2.95;;;;;;;6.67;100.00;104019.69;4704363;30;20053;-79
2021/12/18 05:21:40;;;;;;;5.43;2.60;;;;;;;6.67;100.00;104014.44;4712105;30;20044;-78
2021/12/18 05:24:08;;;;;;;5.47;2.90;;;;;;;6.68;100.00;104016.28;4703027;30;20056;-78
2021/12/18 05:26:37;;;;;;;4.97;2.72;;;;;;;6.69;100.00;104015.50;4707849;30;20048;-78
2021/12/18 05:29:05;;;;;;;7.78;3.30;;;;;;;6.72;100.00;104012.16;4725930;30;20040;-80
2021/12/18 05:31:34;;;;;;;11.65;3.72;;;;;;;6.73;100.00;104007.03;4717374;30;20053;-78
2021/12/18 05:34:04;;;;;;;12.85;4.20;;;;;;;6.74;100.00;104007.94;4704054;30;20264;-78
2021/12/18 05:36:39;;;;;;;19.30;4.60;;;;;;;6.74;100.00;104005.31;4706189;30;20057;-79
2021/12/18 05:39:10;;;;;;;22.08;5.18;;;;;;;6.73;100.00;104003.47;4691293;30;20479;-79
2021/12/18 05:41:39;;;;;;;11.68;3.65;;;;;;;6.73;100.00;104003.47;4727597;30;20045;-78
2021/12/18 05:44:08;;;;;;;14.60;5.22;;;;;;;6.75;100.00;104007.13;4732294;30;20230;-78
2021/12/18 05:46:36;;;;;;;19.23;5.35;;;;;;;6.74;100.00;103995.72;4724670;30;20045;-78
2021/12/18 05:49:05;;;;;;;13.05;4.85;;;;;;;6.77;100.00;104008.16;4709554;30;20235;-78
2021/12/18 05:51:33;;;;;;;16.85;6.25;;;;;;;6.77;100.00;104006.44;4708363;30;20048;-78
2021/12/18 05:54:03;;;;;;;21.35;6.45;;;;;;;6.78;100.00;104010.84;4727319;30;20285;-78
2021/12/18 05:56:33;;;;;;;16.67;6.60;;;;;;;6.79;100.00;103999.59;4708884;30;20064;-79
2021/12/18 05:59:03;;;;;;;16.85;6.60;;;;;;;6.79;100.00;104002.19;4744203;30;20067;-78
2021/12/18 06:01:32;;;;;;;10.40;4.23;;;;;;;6.80;100.00;103995.25;4727703;30;20064;-79
2021/12/18 06:04:01;;;;;;;19.67;6.68;;;;;;;6.81;100.00;103997.06;4724475;30;20068;-79
2021/12/18 06:06:30;;;;;;;17.33;7.00;;;;;;;6.81;100.00;103991.84;4723325;30;20061;-78
2021/12/18 06:08:59;;;;;;;16.30;6.17;;;;;;;6.82;100.00;103998.88;4699411;30;20174;-78
2021/12/18 06:11:31;;;;;;;14.13;6.13;;;;;;;6.84;100.00;103994.63;4696009;30;20294;-78
2021/12/18 06:13:59;;;;;;;11.55;5.68;;;;;;;6.86;100.00;103997.38;4709966;30;20067;-78
2021/12/18 06:16:28;;;;;;;30.23;7.43;;;;;;;6.87;100.00;103996.59;4710139;30;20411;-77
2021/12/18 06:18:56;;;;;;;20.70;7.40;;;;;;;6.88;100.00;103998.38;4725884;30;20076;-78
2021/12/18 06:21:25;;;;;;;21.90;7.50;;;;;;;6.89;100.00;103995.88;4717450;30;20057;-78
2021/12/18 06:23:55;;;;;;;23.55;6.30;;;;;;;6.90;100.00;104002.03;4727143;30;20518;-78
2021/12/18 06:26:27;;;;;;;12.50;5.00;;;;;;;6.91;100.00;104001.22;4680255;30;20410;-79
2021/12/18 06:28:55;;;;;;;16.85;6.10;;;;;;;6.91;100.00;103994.25;4723163;30;20451;-78
2021/12/18 06:31:33;;;;;;;16.00;5.88;;;;;;;6.94;100.00;103996.22;4734181;30;20508;-78
2021/12/18 06:34:02;;;;;;;13.48;4.93;;;;;;;6.96;100.00;103998.13;4700748;30;20444;-78
2021/12/18 06:36:30;;;;;;;11.23;4.65;;;;;;;6.96;100.00;103998.13;4722648;30;20415;-78
2021/12/18 06:38:59;;;;;;;7.60;4.18;;;;;;;6.99;100.00;103989.53;4715118;30;20169;-78
2021/12/18 06:41:27;;;;;;;9.07;3.30;;;;;;;6.99;100.00;103997.41;4709425;30;20559;-79
2021/12/18 06:43:56;;;;;;;10.60;3.42;;;;;;;7.00;100.00;103999.25;4688478;30;20167;-79
2021/12/18 06:46:25;;;;;;;8.90;2.80;;;;;;;7.02;100.00;104001.16;4712300;30;20277;-78
2021/12/18 06:48:54;;;;;;;6.60;2.85;;;;;;;7.03;100.00;104004.69;4735210;30;20411;-78
2021/12/18 06:51:25;;;;;;;6.88;2.60;;;;;;;7.03;100.00;104000.38;4707711;30;20166;-79
2021/12/18 06:53:57;;;;;;;2.97;2.00;;;;;;;7.03;100.00;103997.75;4746254;30;20052;-78
2021/12/18 06:56:26;;;;;;;6.80;2.17;;;;;;;7.04;100.00;104003.88;4732092;30;20283;-78
2021/12/18 06:58:55;;;;;;;9.07;3.17;;;;;;;7.05;100.00;104000.47;4693757;30;20060;-79
2021/12/18 07:01:23;;;;;;;7.82;2.85;;;;;;;7.06;100.00;104006.63;4701683;30;20185;-79
2021/12/18 07:03:52;;;;;;;3.97;2.70;;;;;;;7.07;100.00;103997.94;4727715;30;20060;-79
2021/12/18 07:06:21;;;;;;;9.15;2.72;;;;;;;7.07;100.00;103993.63;4703909;30;20060;-78
2021/12/18 07:08:50;;;;;;;5.57;2.17;;;;;;;7.07;100.00;103996.25;4732703;30;20064;-78
2021/12/18 07:11:18;;;;;;;4.88;2.60;;;;;;;7.08;100.00;103994.53;4716865;30;20165;-78
2021/12/18 07:13:47;;;;;;;11.77;2.88;;;;;;;7.09;100.00;103988.44;4723289;30;20055;-79
2021/12/18 07:16:15;;;;;;;16.63;3.33;;;;;;;7.10;100.00;103996.44;4717106;30;20045;-77
2021/12/18 07:18:44;;;;;;;7.30;2.53;;;;;;;7.11;100.00;103984.25;4699272;30;20060;-79
2021/12/18 07:21:12;;;;;;;7.88;2.72;;;;;;;7.11;100.00;103989.50;4708160;30;20508;-78
2021/12/18 07:23:41;;;;;;;8.25;3.47;;;;;;;7.12;100.00;103994.81;4710213;30;20397;-78
2021/12/18 07:26:12;;;;;;;8.93;2.67;;;;;;;7.13;100.00;103990.50;4698028;30;20072;-78
2021/12/18 07:28:40;;;;;;;12.35;3.65;;;;;;;7.13;100.00;103975.66;4698995;30;20053;-78
2021/12/18 07:31:09;;;;;;;7.80;3.20;;;;;;;7.15;100.00;103981.91;4699076;30;20053;-78
2021/12/18 07:33:41;;;;;;;11.43;3.90;;;;;;;7.15;100.00;103979.31;4717877;30;20198;-78
2021/12/18 07:36:10;;;;;;;11.75;4.38;;;;;;;7.16;100.00;103986.34;4709370;30;20052;-79
2021/12/18 07:38:38;;;;;;;12.52;4.18;;;;;;;7.17;100.00;103976.78;4720318;30;20566;-78
2021/12/18 07:41:07;;;;;;;14.48;5.10;;;;;;;7.18;100.00;103975.97;4714897;30;20515;-78
2021/12/18 07:43:39;;;;;;;16.95;4.03;;;;;;;7.19;100.00;103985.66;4710221;30;20701;-78
2021/12/18 07:46:08;;;;;;;14.02;4.50;;;;;;;7.21;100.00;103989.28;4715612;30;20041;-78
2021/12/18 07:48:36;;;;;;;9.05;3.65;;;;;;;7.21;100.00;103990.19;4744010;30;20262;-78
2021/12/18 07:51:05;;;;;;;13.07;4.03;;;;;;;7.22;100.00;103981.53;4720879;30;20041;-78
2021/12/18 07:53:34;;;;;;;12.25;3.83;;;;;;;7.23;100.00;103995.56;4720929;30;20795;-78
2021/12/18 07:56:04;;;;;;;13.43;3.95;;;;;;;7.25;100.00;103979.91;4743239;30;20056;-78
2021/12/18 07:58:36;;;;;;;15.18;3.50;;;;;;;7.26;100.00;103986.97;4723965;30;20573;-77
2021/12/18 08:01:05;;;;;;;9.88;3.63;;;;;;;7.25;100.00;103986.06;4690470;30;20060;-78
2021/12/18 08:03:33;;;;;;;15.90;3.88;;;;;;;7.27;100.00;103986.19;4728367;30;20091;-78
2021/12/18 08:06:03;;;;;;;11.90;3.30;;;;;;;7.27;100.00;103989.69;4721048;30;20068;-78
2021/12/18 08:08:31;;;;;;;16.08;3.28;;;;;;;7.26;100.00;103990.53;4729228;30;20052;-78
2021/12/18 08:11:03;;;;;;;7.78;3.75;;;;;;;7.27;100.00;103989.69;4721331;30;20373;-78
2021/12/18 08:13:32;;;;;;;9.77;3.50;;;;;;;7.29;100.00;103998.56;4710542;30;20400;-78
2021/12/18 08:16:00;;;;;;;13.10;2.70;;;;;;;7.28;100.00;103999.41;4686745;30;20060;-78
2021/12/18 08:18:29;;;;;;;13.75;3.55;;;;;;;7.29;100.00;103990.72;4739255;30;20060;-78
2021/12/18 08:20:57;;;;;;;11.93;3.28;;;;;;;7.30;100.00;103983.78;4720952;30;20408;-78
2021/12/18 08:23:26;;;;;;;14.82;2.58;;;;;;;7.30;100.00;103992.53;4734405;30;20053;-77
2021/12/18 08:25:54;;;;;;;7.47;2.38;;;;;;;7.32;100.00;103996.16;4688607;30;20067;-78
2021/12/18 08:28:23;;;;;;;14.48;3.63;;;;;;;7.33;100.00;103992.72;4685579;30;23492;-77
2021/12/18 08:30:52;;;;;;;13.77;3.17;;;;;;;7.35;100.00;103992.84;4688179;30;20408;-77
2021/12/18 08:33:21;;;;;;;11.65;3.17;;;;;;;7.35;100.00;103991.13;4710951;30;20051;-78
2021/12/18 08:35:50;;;;;;;11.30;3.78;;;;;;;7.36;100.00;103998.19;4715984;30;20056;-79
2021/12/18 08:38:19;;;;;;;13.35;3.33;;;;;;;7.37;100.00;103991.22;4702148;30;20278;-78
2021/12/18 08:40:50;;;;;;;16.05;3.92;;;;;;;7.39;100.00;103994.84;4712677;30;20072;-78
2021/12/18 08:43:18;;;;;;;13.40;3.75;;;;;;;7.40;100.00;103997.56;4697991;30;20064;-79
2021/12/18 08:45:47;;;;;;;24.65;3.65;;;;;;;7.40;100.00;103987.09;4671939;30;20056;-79
2021/12/18 08:48:15;;;;;;;10.25;3.30;;;;;;;7.42;100.00;103993.34;4706191;30;20053;-78
2021/12/18 08:50:44;;;;;;;13.07;3.45;;;;;;;7.44;100.00;103984.69;4743232;30;20049;-79
2021/12/18 08:53:13;;;;;;;14.35;3.20;;;;;;;7.45;100.00;103991.72;4738467;30;20268;-78
2021/12/18 08:55:42;;;;;;;12.27;2.90;;;;;;;7.46;100.00;103990.94;4736203;30;20045;-79
2021/12/18 08:58:11;;;;;;;10.10;2.75;;;;;;;7.46;100.00;103986.59;4685269;30;20060;-78
2021/12/18 09:00:40;;;;;;;8.82;2.50;;;;;;;7.47;100.00;103991.03;4681635;30;20934;-78
2021/12/18 09:03:09;;;;;;;6.90;2.50;;;;;;;7.49;100.00;103981.56;4721516;30;20049;-78
2021/12/18 09:05:37;;;;;;;5.40;2.33;;;;;;;7.49;100.00;103989.44;4726285;30;20169;-80
2021/12/18 09:08:06;;;;;;;8.05;2.72;;;;;;;7.51;100.00;103989.53;4713344;30;20045;-78
2021/12/18 09:10:35;;;;;;;9.20;2.22;;;;;;;7.53;100.00;103990.53;4694336;30;20055;-77
2021/12/18 09:13:03;;;;;;;7.88;2.72;;;;;;;7.53;100.00;103988.81;4713670;30;20052;-78
2021/12/18 09:15:32;;;;;;;10.40;2.67;;;;;;;7.54;100.00;103990.66;4701059;30;20048;-77
2021/12/18 09:18:00;;;;;;;9.38;3.45;;;;;;;7.56;100.00;103990.72;4699404;30;20067;-78
2021/12/18 09:20:30;;;;;;;9.32;1.95;;;;;;;7.57;100.00;103992.56;4715735;30;20055;-80
2021/12/18 09:23:00;;;;;;;10.93;2.55;;;;;;;7.59;100.00;103991.84;4710005;30;20048;-80
2021/12/18 09:25:29;;;;;;;17.35;3.47;;;;;;;7.61;100.00;103997.19;4724371;30;20055;-78
2021/12/18 09:27:57;;;;;;;6.13;2.13;;;;;;;7.62;100.00;103999.03;4683441;30;20487;-78
2021/12/18 09:30:26;;;;;;;7.43;2.92;;;;;;;7.63;100.00;103985.06;4723556;30;20449;-78
2021/12/18 09:32:54;;;;;;;7.85;2.53;;;;;;;7.65;100.00;103987.81;4686516;30;20049;-77
2021/12/18 09:35:23;;;;;;;15.73;3.28;;;;;;;7.67;100.00;103992.34;4708900;30;20044;-78
2021/12/18 09:37:53;;;;;;;11.85;2.95;;;;;;;7.68;100.00;103990.63;4699872;30;20052;-78
2021/12/18 09:40:23;;;;;;;12.23;3.20;;;;;;;7.69;100.00;103990.72;4725015;30;20053;-78
2021/12/18 09:42:51;;;;;;;8.55;3.50;;;;;;;7.70;100.00;103995.16;4702295;30;20723;-78
2021/12/18 09:45:21;;;;;;;13.88;2.72;;;;;;;7.71;100.00;103985.56;4727275;30;20060;-78
2021/12/18 09:47:56;;;;;;;6.93;2.40;;;;;;;7.72;100.00;103996.19;4700834;30;20470;-77
2021/12/18 09:50:27;;;;;;;11.73;2.47;;;;;;;7.73;100.00;103984.88;4726386;30;20063;-78
2021/12/18 09:52:56;;;;;;;19.90;3.85;;;;;;;7.75;100.00;103988.50;4695221;30;20173;-78
2021/12/18 09:55:24;;;;;;;13.65;2.95;;;;;;;7.77;100.00;103988.63;4722156;30;20186;-78
2021/12/18 09:57:53;;;;;;;19.25;3.17;;;;;;;7.79;100.00;103980.03;4724546;30;20053;-78
2021/12/18 10:00:27;;;;;;;12.48;2.60;;;;;;;7.81;100.00;103981.03;4708052;30;20442;-79
2021/12/18 10:02:56;;;;;;;12.30;2.97;;;;;;;7.84;100.00;103971.53;4699100;30;20048;-77
2021/12/18 10:05:29;;;;;;;10.90;2.55;;;;;;;7.84;100.00;103972.44;4727989;30;20060;-77
2021/12/18 10:08:16;;;;;;;7.65;2.47;;;;;;;7.86;100.00;103972.53;4716436;30;20049;-77
2021/12/18 10:10:59;;;;;;;10.65;3.20;;;;;;;7.87;100.00;103972.63;4731736;30;20057;-77
2021/12/18 10:13:31;;;;;;;11.50;3.50;;;;;;;7.90;100.00;103966.66;4724621;30;20045;-78
2021/12/18 10:16:09;;;;;;;17.77;3.15;;;;;;;7.92;100.00;103965.97;4714459;30;20059;-77
2021/12/18 10:18:38;;;;;;;4.80;2.05;;;;;;;7.95;100.00;103967.88;4697005;30;20075;-78
2021/12/18 10:21:13;;;;;;;;;;;;;;;7.97;100.00;103966.25;4727004;30;20296;-78
2021/12/18 10:23:44;;;;;;;15.40;3.08;;;;;;;7.98;100.00;103955.84;4735359;30;19926;-77
2021/12/18 10:26:48;;;;;;;;;;;;;;;7.98;100.00;103958.47;4718832;30;20057;-78
2021/12/18 10:29:42;;;;;;;15.27;2.67;;;;;;;7.99;100.00;103954.13;4721711;30;19934;-77
2021/12/18 10:32:13;;;;;;;12.15;3.20;;;;;;;8.01;100.00;103960.38;4720150;30;20201;-78
2021/12/18 10:34:50;;;;;;;15.55;3.30;;;;;;;8.01;100.00;103949.88;4704582;30;20060;-77
2021/12/18 10:37:21;;;;;;;16.85;3.80;;;;;;;8.03;100.00;103955.22;4692282;30;20669;-78
2021/12/18 10:39:50;;;;;;;11.57;3.58;;;;;;;8.03;100.00;103945.63;4734329;30;20056;-77
2021/12/18 10:42:33;;;;;;;13.80;3.03;;;;;;;8.03;100.00;103943.00;4725193;30;20165;-77
2021/12/18 10:45:09;;;;;;;10.55;3.40;;;;;;;8.03;100.00;103936.84;4723261;30;20053;-77
2021/12/18 10:47:48;;;;;;;16.00;3.15;;;;;;;8.04;100.00;103936.94;4718923;30;20055;-78
2021/12/18 10:50:26;;;;;;;16.75;3.88;;;;;;;8.04;100.00;103936.94;4684364;30;20258;-77
2021/12/18 10:53:05;;;;;;;15.63;3.75;;;;;;;8.05;100.00;103933.50;4741873;30;20079;-78
2021/12/18 10:55:51;;;;;;;13.73;2.88;;;;;;;8.07;100.00;103931.91;4721322;30;20072;-78
2021/12/18 10:58:32;;;;;;;8.45;2.50;;;;;;;8.06;100.00;103929.16;4734919;30;20049;-78
2021/12/18 11:01:03;;;;;;;8.75;2.67;;;;;;;8.06;100.00;103924.81;4720091;30;20055;-78
2021/12/18 11:03:38;;;;;;;8.77;2.80;;;;;;;8.07;100.00;103921.41;4722620;30;20041;-77
2021/12/18 11:06:09;;;;;;;6.40;2.50;;;;;;;8.09;100.00;103922.41;4692623;30;20088;-77
2021/12/18 11:09:06;;;;;;;10.73;3.15;;;;;;;8.11;100.00;103918.13;4740659;30;20049;-77
2021/12/18 11:14:18;;;;;;;12.50;3.00;;;;;;;8.15;100.00;103925.41;4724928;30;20467;-78
2021/12/18 11:16:53;;;;;;;9.50;3.40;;;;;;;8.16;100.00;103911.44;4701528;30;20057;-77
2021/12/18 11:19:25;;;;;;;11.70;3.33;;;;;;;8.17;100.00;103908.00;4705524;30;20050;-78
2021/12/18 11:22:05;;;;;;;13.05;2.83;;;;;;;8.18;100.00;103901.03;4699794;30;20067;-77
2021/12/18 11:24:35;;;;;;;5.82;2.88;;;;;;;8.19;100.00;103901.13;4724141;30;20056;-78
2021/12/18 11:27:13;;;;;;;6.95;2.63;;;;;;;8.20;100.00;103902.94;4713685;30;20056;-78
2021/12/18 11:29:55;;;;;;;8.80;2.97;;;;;;;8.23;100.00;103898.69;4718922;30;20415;-77
2021/12/18 11:32:31;;;;;;;9.48;2.63;;;;;;;8.22;100.00;103896.88;4718922;30;20250;-78
2021/12/18 11:35:03;;;;;;;6.68;2.55;;;;;;;8.22;100.00;103895.13;4663070;30;20064;-78
2021/12/18 11:37:45;;;;;;;14.05;3.33;;;;;;;8.24;100.00;103897.88;4697434;30;20061;-77
2021/12/18 11:40:21;;;;;;;12.32;2.97;;;;;;;8.25;100.00;103894.44;4713682;30;20044;-77
2021/12/18 11:42:50;;;;;;;13.15;2.92;;;;;;;8.25;100.00;103891.81;4719753;30;20040;-77
2021/12/18 11:45:19;;;;;;;11.85;2.55;;;;;;;8.26;100.00;103890.97;4725027;30;20260;-77
2021/12/18 11:47:56;;;;;;;9.00;3.00;;;;;;;8.25;100.00;103889.19;4723688;30;20411;-77
2021/12/18 11:50:34;;;;;;;6.88;2.28;;;;;;;8.27;100.00;103892.81;4692151;30;21199;-78
2021/12/18 11:53:12;;;;;;;9.27;2.40;;;;;;;8.26;100.00;103889.28;4698535;30;20053;-78
2021/12/18 11:55:49;;;;;;;14.63;3.15;;;;;;;8.27;100.00;103890.19;4729947;30;20071;-79
2021/12/18 11:58:22;;;;;;;10.40;2.67;;;;;;;8.27;100.00;103893.72;4710675;30;20278;-77
2021/12/18 12:00:59;;;;;;;14.80;2.85;;;;;;;8.27;100.00;103896.34;4708685;30;20055;-78
2021/12/18 12:03:30;;;;;;;9.25;3.33;;;;;;;8.28;100.00;103891.97;4719988;30;20411;-78
2021/12/18 12:06:02;;;;;;;9.18;3.45;;;;;;;8.28;100.00;103879.78;4698926;30;20146;-80
2021/12/18 12:08:39;;;;;;;13.63;3.10;;;;;;;8.29;100.00;103880.69;4712353;30;20147;-78
2021/12/18 12:11:27;;;;;;;13.07;3.22;;;;;;;8.31;100.00;103879.94;4725628;30;20057;-77
2021/12/18 12:14:02;;;;;;;10.68;2.97;;;;;;;8.31;100.00;103872.06;4709060;30;20680;-78
2021/12/18 12:17:02;;;;;;;9.45;2.42;;;;;;;8.32;100.00;103871.25;4719511;30;20048;-79
2021/12/18 12:19:33;;;;;;;7.53;2.72;;;;;;;8.33;100.00;103867.81;4693906;30;20061;-80
2021/12/18 12:22:08;;;;;;;10.93;3.35;;;;;;;8.34;100.00;103871.38;4701241;30;20060;-79
2021/12/18 12:24:55;;;;;;;15.77;4.38;;;;;;;8.34;100.00;103872.25;4723833;30;20048;-79